sensor_id;sensor_type;location;lat;lon;timestamp;P1;durP1;ratioP1;P2;durP2;ratioP2
15595;SDS011;7898;48.658;9.068;2023-04-24T00:00:42;1.10;;;0.97;;
15595;SDS011;7898;48.658;9.068;2023-04-24T00:03:10;2.43;;;1.10;;
15595;SDS011;7898;48.658;9.068;2023-04-24T00:05:37;3.77;;;1.07;;
15595;SDS011;7898;48.658;9.068;2023-04-24T00:08:07;1.40;;;0.80;;
15595;SDS011;7898;48.658;9.068;2023-04-24T00:10:34;1.80;;;1.00;;
15595;SDS011;7898;48.658;9.068;2023-04-24T00:13:01;1.97;;;1.07;;
15595;SDS011;7898;48.658;9.068;2023-04-24T00:15:28;2.87;;;1.07;;
15595;SDS011;7898;48.658;9.068;2023-04-24T00:17:55;3.97;;;1.00;;
15595;SDS011;7898;48.658;9.068;2023-04-24T00:20:22;4.77;;;1.07;;
15595;SDS011;7898;48.658;9.068;2023-04-24T00:22:49;1.93;;;1.20;;
15595;SDS011;7898;48.658;9.068;2023-04-24T00:25:17;1.60;;;1.00;;
15595;SDS011;7898;48.658;9.068;2023-04-24T00:27:44;1.67;;;0.83;;
15595;SDS011;7898;48.658;9.068;2023-04-24T00:30:11;3.80;;;1.00;;
15595;SDS011;7898;48.658;9.068;2023-04-24T00:32:38;2.33;;;1.00;;
15595;SDS011;7898;48.658;9.068;2023-04-24T00:35:05;2.47;;;0.93;;
15595;SDS011;7898;48.658;9.068;2023-04-24T00:37:33;2.20;;;0.90;;
15595;SDS011;7898;48.658;9.068;2023-04-24T00:40:03;2.87;;;1.00;;
15595;SDS011;7898;48.658;9.068;2023-04-24T00:42:31;2.57;;;1.30;;
15595;SDS011;7898;48.658;9.068;2023-04-24T00:44:59;2.20;;;0.80;;
15595;SDS011;7898;48.658;9.068;2023-04-24T00:47:28;2.40;;;1.10;;
15595;SDS011;7898;48.658;9.068;2023-04-24T00:49:56;1.07;;;0.90;;
15595;SDS011;7898;48.658;9.068;2023-04-24T00:52:23;1.27;;;0.73;;
15595;SDS011;7898;48.658;9.068;2023-04-24T00:54:50;3.23;;;1.07;;
15595;SDS011;7898;48.658;9.068;2023-04-24T00:57:17;2.67;;;0.90;;
15595;SDS011;7898;48.658;9.068;2023-04-24T00:59:45;2.40;;;0.90;;
15595;SDS011;7898;48.658;9.068;2023-04-24T01:02:12;1.67;;;0.83;;
15595;SDS011;7898;48.658;9.068;2023-04-24T01:04:40;1.47;;;0.90;;
15595;SDS011;7898;48.658;9.068;2023-04-24T01:07:08;2.10;;;1.23;;
15595;SDS011;7898;48.658;9.068;2023-04-24T01:09:36;2.30;;;1.10;;
15595;SDS011;7898;48.658;9.068;2023-04-24T01:12:04;2.90;;;1.00;;
15595;SDS011;7898;48.658;9.068;2023-04-24T01:14:31;2.97;;;1.20;;
15595;SDS011;7898;48.658;9.068;2023-04-24T01:16:59;1.97;;;1.00;;
15595;SDS011;7898;48.658;9.068;2023-04-24T01:19:26;2.83;;;1.37;;
15595;SDS011;7898;48.658;9.068;2023-04-24T01:21:53;2.93;;;1.00;;
15595;SDS011;7898;48.658;9.068;2023-04-24T01:24:26;1.07;;;0.93;;
15595;SDS011;7898;48.658;9.068;2023-04-24T01:26:52;4.50;;;1.30;;
15595;SDS011;7898;48.658;9.068;2023-04-24T01:29:20;1.60;;;0.80;;
15595;SDS011;7898;48.658;9.068;2023-04-24T01:31:47;0.80;;;0.80;;
15595;SDS011;7898;48.658;9.068;2023-04-24T01:34:14;2.93;;;0.90;;
15595;SDS011;7898;48.658;9.068;2023-04-24T01:36:42;2.63;;;0.93;;
15595;SDS011;7898;48.658;9.068;2023-04-24T01:39:11;1.57;;;1.07;;
15595;SDS011;7898;48.658;9.068;2023-04-24T01:41:39;1.87;;;1.07;;
15595;SDS011;7898;48.658;9.068;2023-04-24T01:44:06;0.80;;;0.80;;
15595;SDS011;7898;48.658;9.068;2023-04-24T01:46:33;4.23;;;1.13;;
15595;SDS011;7898;48.658;9.068;2023-04-24T01:49:01;2.57;;;1.10;;
15595;SDS011;7898;48.658;9.068;2023-04-24T01:51:28;1.27;;;1.00;;
15595;SDS011;7898;48.658;9.068;2023-04-24T01:53:55;0.83;;;0.80;;
15595;SDS011;7898;48.658;9.068;2023-04-24T01:56:22;1.50;;;0.90;;
15595;SDS011;7898;48.658;9.068;2023-04-24T01:58:50;1.07;;;0.97;;
15595;SDS011;7898;48.658;9.068;2023-04-24T02:01:20;1.47;;;1.00;;
15595;SDS011;7898;48.658;9.068;2023-04-24T02:03:47;3.87;;;1.07;;
15595;SDS011;7898;48.658;9.068;2023-04-24T02:06:14;1.67;;;1.17;;
15595;SDS011;7898;48.658;9.068;2023-04-24T02:08:40;1.80;;;1.20;;
15595;SDS011;7898;48.658;9.068;2023-04-24T02:11:08;1.20;;;1.03;;
15595;SDS011;7898;48.658;9.068;2023-04-24T02:13:35;1.60;;;1.33;;
15595;SDS011;7898;48.658;9.068;2023-04-24T02:16:03;2.30;;;1.10;;
15595;SDS011;7898;48.658;9.068;2023-04-24T02:18:30;1.33;;;1.00;;
15595;SDS011;7898;48.658;9.068;2023-04-24T02:20:57;2.97;;;1.50;;
15595;SDS011;7898;48.658;9.068;2023-04-24T02:23:24;1.63;;;1.40;;
15595;SDS011;7898;48.658;9.068;2023-04-24T02:25:52;1.73;;;1.13;;
15595;SDS011;7898;48.658;9.068;2023-04-24T02:28:19;2.37;;;1.17;;
15595;SDS011;7898;48.658;9.068;2023-04-24T02:30:46;3.47;;;1.13;;
15595;SDS011;7898;48.658;9.068;2023-04-24T02:33:14;1.70;;;1.23;;
15595;SDS011;7898;48.658;9.068;2023-04-24T02:35:41;2.10;;;1.10;;
15595;SDS011;7898;48.658;9.068;2023-04-24T02:38:08;1.10;;;0.97;;
15595;SDS011;7898;48.658;9.068;2023-04-24T02:40:35;2.57;;;1.07;;
15595;SDS011;7898;48.658;9.068;2023-04-24T02:43:02;2.20;;;1.07;;
15595;SDS011;7898;48.658;9.068;2023-04-24T02:45:28;2.00;;;1.00;;
15595;SDS011;7898;48.658;9.068;2023-04-24T02:47:55;1.67;;;1.30;;
15595;SDS011;7898;48.658;9.068;2023-04-24T02:50:24;2.00;;;0.90;;
15595;SDS011;7898;48.658;9.068;2023-04-24T02:52:50;1.03;;;0.90;;
15595;SDS011;7898;48.658;9.068;2023-04-24T02:55:17;2.07;;;1.23;;
15595;SDS011;7898;48.658;9.068;2023-04-24T02:57:44;1.13;;;0.90;;
15595;SDS011;7898;48.658;9.068;2023-04-24T03:00:11;1.13;;;0.93;;
15595;SDS011;7898;48.658;9.068;2023-04-24T03:02:39;4.23;;;0.70;;
15595;SDS011;7898;48.658;9.068;2023-04-24T03:05:06;2.67;;;1.27;;
15595;SDS011;7898;48.658;9.068;2023-04-24T03:07:35;1.97;;;0.93;;
15595;SDS011;7898;48.658;9.068;2023-04-24T03:10:02;0.97;;;0.83;;
15595;SDS011;7898;48.658;9.068;2023-04-24T03:12:29;1.00;;;0.70;;
15595;SDS011;7898;48.658;9.068;2023-04-24T03:14:56;2.10;;;1.00;;
15595;SDS011;7898;48.658;9.068;2023-04-24T03:17:23;1.17;;;0.90;;
15595;SDS011;7898;48.658;9.068;2023-04-24T03:19:50;0.80;;;0.80;;
15595;SDS011;7898;48.658;9.068;2023-04-24T03:22:17;1.30;;;0.93;;
15595;SDS011;7898;48.658;9.068;2023-04-24T03:24:46;4.00;;;1.07;;
15595;SDS011;7898;48.658;9.068;2023-04-24T03:27:12;2.80;;;0.93;;
15595;SDS011;7898;48.658;9.068;2023-04-24T03:29:39;1.67;;;0.90;;
15595;SDS011;7898;48.658;9.068;2023-04-24T03:32:06;1.67;;;0.80;;
15595;SDS011;7898;48.658;9.068;2023-04-24T03:34:33;3.17;;;0.93;;
15595;SDS011;7898;48.658;9.068;2023-04-24T03:37:00;1.03;;;0.80;;
15595;SDS011;7898;48.658;9.068;2023-04-24T03:39:27;1.80;;;0.70;;
15595;SDS011;7898;48.658;9.068;2023-04-24T03:41:55;1.00;;;0.90;;
15595;SDS011;7898;48.658;9.068;2023-04-24T03:44:22;0.87;;;0.80;;
15595;SDS011;7898;48.658;9.068;2023-04-24T03:46:49;3.80;;;1.33;;
15595;SDS011;7898;48.658;9.068;2023-04-24T03:49:15;1.57;;;1.23;;
15595;SDS011;7898;48.658;9.068;2023-04-24T03:51:42;1.47;;;0.90;;
15595;SDS011;7898;48.658;9.068;2023-04-24T03:54:09;2.53;;;1.07;;
15595;SDS011;7898;48.658;9.068;2023-04-24T03:56:36;2.10;;;1.20;;
15595;SDS011;7898;48.658;9.068;2023-04-24T03:59:04;1.37;;;1.03;;
15595;SDS011;7898;48.658;9.068;2023-04-24T04:01:31;2.23;;;0.77;;
15595;SDS011;7898;48.658;9.068;2023-04-24T04:04:01;0.80;;;0.80;;
15595;SDS011;7898;48.658;9.068;2023-04-24T04:06:28;0.93;;;0.87;;
15595;SDS011;7898;48.658;9.068;2023-04-24T04:08:55;1.10;;;0.90;;
15595;SDS011;7898;48.658;9.068;2023-04-24T04:11:22;2.00;;;0.90;;
15595;SDS011;7898;48.658;9.068;2023-04-24T04:13:50;0.73;;;0.70;;
15595;SDS011;7898;48.658;9.068;2023-04-24T04:16:18;2.20;;;1.03;;
15595;SDS011;7898;48.658;9.068;2023-04-24T04:18:45;1.80;;;0.80;;
15595;SDS011;7898;48.658;9.068;2023-04-24T04:21:12;0.80;;;0.80;;
15595;SDS011;7898;48.658;9.068;2023-04-24T04:23:38;0.83;;;0.70;;
15595;SDS011;7898;48.658;9.068;2023-04-24T04:26:06;1.20;;;0.77;;
15595;SDS011;7898;48.658;9.068;2023-04-24T04:28:34;2.83;;;0.67;;
15595;SDS011;7898;48.658;9.068;2023-04-24T04:31:01;3.17;;;0.70;;
15595;SDS011;7898;48.658;9.068;2023-04-24T04:33:29;1.53;;;0.83;;
15595;SDS011;7898;48.658;9.068;2023-04-24T04:35:56;3.83;;;1.80;;
15595;SDS011;7898;48.658;9.068;2023-04-24T04:38:23;1.20;;;1.10;;
15595;SDS011;7898;48.658;9.068;2023-04-24T04:40:51;1.87;;;1.17;;
15595;SDS011;7898;48.658;9.068;2023-04-24T04:43:18;1.40;;;1.20;;
15595;SDS011;7898;48.658;9.068;2023-04-24T04:45:45;2.73;;;1.20;;
15595;SDS011;7898;48.658;9.068;2023-04-24T04:48:13;2.47;;;1.53;;
15595;SDS011;7898;48.658;9.068;2023-04-24T04:50:44;3.30;;;1.43;;
15595;SDS011;7898;48.658;9.068;2023-04-24T04:53:11;1.77;;;1.40;;
15595;SDS011;7898;48.658;9.068;2023-04-24T04:55:38;2.20;;;1.57;;
15595;SDS011;7898;48.658;9.068;2023-04-24T04:58:05;3.73;;;1.77;;
15595;SDS011;7898;48.658;9.068;2023-04-24T05:00:31;5.80;;;1.80;;
15595;SDS011;7898;48.658;9.068;2023-04-24T05:03:00;5.37;;;2.07;;
15595;SDS011;7898;48.658;9.068;2023-04-24T05:05:27;2.60;;;1.90;;
15595;SDS011;7898;48.658;9.068;2023-04-24T05:07:56;2.80;;;2.00;;
15595;SDS011;7898;48.658;9.068;2023-04-24T05:10:23;3.47;;;1.90;;
15595;SDS011;7898;48.658;9.068;2023-04-24T05:12:50;2.27;;;2.03;;
15595;SDS011;7898;48.658;9.068;2023-04-24T05:15:17;2.47;;;2.07;;
15595;SDS011;7898;48.658;9.068;2023-04-24T05:17:44;3.70;;;2.50;;
15595;SDS011;7898;48.658;9.068;2023-04-24T05:20:11;1.90;;;1.70;;
15595;SDS011;7898;48.658;9.068;2023-04-24T05:22:38;2.87;;;2.17;;
15595;SDS011;7898;48.658;9.068;2023-04-24T05:25:06;2.13;;;1.80;;
15595;SDS011;7898;48.658;9.068;2023-04-24T05:27:33;9.47;;;2.03;;
15595;SDS011;7898;48.658;9.068;2023-04-24T05:30:00;2.87;;;2.17;;
15595;SDS011;7898;48.658;9.068;2023-04-24T05:32:27;3.10;;;2.33;;
15595;SDS011;7898;48.658;9.068;2023-04-24T05:34:54;3.40;;;2.00;;
15595;SDS011;7898;48.658;9.068;2023-04-24T05:37:21;3.03;;;2.00;;
15595;SDS011;7898;48.658;9.068;2023-04-24T05:39:48;3.63;;;2.07;;
15595;SDS011;7898;48.658;9.068;2023-04-24T05:42:16;2.50;;;2.23;;
15595;SDS011;7898;48.658;9.068;2023-04-24T05:44:43;2.50;;;1.90;;
15595;SDS011;7898;48.658;9.068;2023-04-24T05:47:10;4.17;;;2.17;;
15595;SDS011;7898;48.658;9.068;2023-04-24T05:49:37;3.13;;;1.90;;
15595;SDS011;7898;48.658;9.068;2023-04-24T05:52:04;2.80;;;1.93;;
15595;SDS011;7898;48.658;9.068;2023-04-24T05:54:33;2.47;;;2.00;;
15595;SDS011;7898;48.658;9.068;2023-04-24T05:57:00;2.17;;;1.77;;
15595;SDS011;7898;48.658;9.068;2023-04-24T05:59:33;2.17;;;1.67;;
15595;SDS011;7898;48.658;9.068;2023-04-24T06:02:02;2.83;;;2.00;;
15595;SDS011;7898;48.658;9.068;2023-04-24T06:04:29;3.53;;;2.40;;
15595;SDS011;7898;48.658;9.068;2023-04-24T06:06:56;2.80;;;2.27;;
15595;SDS011;7898;48.658;9.068;2023-04-24T06:09:23;2.80;;;2.10;;
15595;SDS011;7898;48.658;9.068;2023-04-24T06:11:50;3.57;;;2.47;;
15595;SDS011;7898;48.658;9.068;2023-04-24T06:14:18;3.13;;;2.43;;
15595;SDS011;7898;48.658;9.068;2023-04-24T06:16:46;2.63;;;2.40;;
15595;SDS011;7898;48.658;9.068;2023-04-24T06:19:13;3.40;;;2.50;;
15595;SDS011;7898;48.658;9.068;2023-04-24T06:21:40;2.93;;;2.13;;
15595;SDS011;7898;48.658;9.068;2023-04-24T06:24:07;3.57;;;2.20;;
15595;SDS011;7898;48.658;9.068;2023-04-24T06:26:34;2.53;;;2.17;;
15595;SDS011;7898;48.658;9.068;2023-04-24T06:29:01;2.80;;;2.20;;
15595;SDS011;7898;48.658;9.068;2023-04-24T06:31:28;2.20;;;1.90;;
15595;SDS011;7898;48.658;9.068;2023-04-24T06:33:56;1.77;;;1.67;;
15595;SDS011;7898;48.658;9.068;2023-04-24T06:36:23;2.47;;;1.73;;
15595;SDS011;7898;48.658;9.068;2023-04-24T06:38:50;2.27;;;2.07;;
15595;SDS011;7898;48.658;9.068;2023-04-24T06:41:17;2.17;;;1.70;;
15595;SDS011;7898;48.658;9.068;2023-04-24T06:43:44;2.83;;;1.93;;
15595;SDS011;7898;48.658;9.068;2023-04-24T06:46:10;2.53;;;1.55;;
15595;SDS011;7898;48.658;9.068;2023-04-24T06:48:37;1.95;;;1.48;;
15595;SDS011;7898;48.658;9.068;2023-04-24T06:51:06;1.35;;;1.20;;
15595;SDS011;7898;48.658;9.068;2023-04-24T06:53:33;3.35;;;1.30;;
15595;SDS011;7898;48.658;9.068;2023-04-24T06:56:00;2.28;;;1.48;;
15595;SDS011;7898;48.658;9.068;2023-04-24T06:58:27;1.45;;;1.35;;
15595;SDS011;7898;48.658;9.068;2023-04-24T07:00:53;2.92;;;1.60;;
15595;SDS011;7898;48.658;9.068;2023-04-24T07:03:20;1.95;;;1.70;;
15595;SDS011;7898;48.658;9.068;2023-04-24T07:05:47;3.67;;;1.58;;
15595;SDS011;7898;48.658;9.068;2023-04-24T07:08:16;3.90;;;1.73;;
15595;SDS011;7898;48.658;9.068;2023-04-24T07:10:43;2.40;;;2.10;;
15595;SDS011;7898;48.658;9.068;2023-04-24T07:13:11;2.50;;;2.10;;
15595;SDS011;7898;48.658;9.068;2023-04-24T07:15:37;2.10;;;1.27;;
15595;SDS011;7898;48.658;9.068;2023-04-24T07:18:06;2.90;;;1.43;;
15595;SDS011;7898;48.658;9.068;2023-04-24T07:20:33;1.10;;;1.00;;
15595;SDS011;7898;48.658;9.068;2023-04-24T07:23:00;1.83;;;0.93;;
15595;SDS011;7898;48.658;9.068;2023-04-24T07:25:28;1.43;;;1.20;;
15595;SDS011;7898;48.658;9.068;2023-04-24T07:27:56;1.20;;;1.10;;
15595;SDS011;7898;48.658;9.068;2023-04-24T07:30:23;2.13;;;1.10;;
15595;SDS011;7898;48.658;9.068;2023-04-24T07:32:50;1.10;;;0.90;;
15595;SDS011;7898;48.658;9.068;2023-04-24T07:35:17;1.63;;;0.90;;
15595;SDS011;7898;48.658;9.068;2023-04-24T07:37:45;0.80;;;0.80;;
15595;SDS011;7898;48.658;9.068;2023-04-24T07:40:12;2.90;;;1.10;;
15595;SDS011;7898;48.658;9.068;2023-04-24T07:42:40;1.10;;;1.00;;
15595;SDS011;7898;48.658;9.068;2023-04-24T07:45:08;1.35;;;1.10;;
15595;SDS011;7898;48.658;9.068;2023-04-24T07:47:36;2.22;;;1.20;;
15595;SDS011;7898;48.658;9.068;2023-04-24T07:50:05;1.17;;;1.08;;
15595;SDS011;7898;48.658;9.068;2023-04-24T07:52:32;3.67;;;1.23;;
15595;SDS011;7898;48.658;9.068;2023-04-24T07:54:59;1.70;;;1.38;;
15595;SDS011;7898;48.658;9.068;2023-04-24T07:57:27;2.40;;;1.30;;
15595;SDS011;7898;48.658;9.068;2023-04-24T07:59:55;1.20;;;1.10;;
15595;SDS011;7898;48.658;9.068;2023-04-24T08:02:22;1.40;;;1.30;;
15595;SDS011;7898;48.658;9.068;2023-04-24T08:04:51;2.38;;;1.30;;
15595;SDS011;7898;48.658;9.068;2023-04-24T08:07:19;1.67;;;1.40;;
15595;SDS011;7898;48.658;9.068;2023-04-24T08:09:46;1.88;;;1.42;;
15595;SDS011;7898;48.658;9.068;2023-04-24T08:12:12;1.40;;;1.30;;
15595;SDS011;7898;48.658;9.068;2023-04-24T08:14:39;2.88;;;1.40;;
15595;SDS011;7898;48.658;9.068;2023-04-24T08:17:08;1.50;;;1.40;;
15595;SDS011;7898;48.658;9.068;2023-04-24T08:19:34;2.43;;;1.70;;
15595;SDS011;7898;48.658;9.068;2023-04-24T08:22:01;2.83;;;1.60;;
15595;SDS011;7898;48.658;9.068;2023-04-24T08:24:29;2.03;;;1.73;;
15595;SDS011;7898;48.658;9.068;2023-04-24T08:26:56;1.80;;;1.50;;
15595;SDS011;7898;48.658;9.068;2023-04-24T08:29:23;3.03;;;1.40;;
15595;SDS011;7898;48.658;9.068;2023-04-24T08:31:51;2.13;;;1.27;;
15595;SDS011;7898;48.658;9.068;2023-04-24T08:34:21;2.43;;;1.40;;
15595;SDS011;7898;48.658;9.068;2023-04-24T08:36:48;2.00;;;1.30;;
15595;SDS011;7898;48.658;9.068;2023-04-24T08:39:15;1.73;;;1.50;;
15595;SDS011;7898;48.658;9.068;2023-04-24T08:41:43;2.13;;;1.77;;
15595;SDS011;7898;48.658;9.068;2023-04-24T08:44:12;1.77;;;1.42;;
15595;SDS011;7898;48.658;9.068;2023-04-24T08:46:40;2.38;;;1.63;;
15595;SDS011;7898;48.658;9.068;2023-04-24T08:49:08;2.40;;;1.63;;
15595;SDS011;7898;48.658;9.068;2023-04-24T08:51:37;2.63;;;1.70;;
15595;SDS011;7898;48.658;9.068;2023-04-24T08:54:05;2.67;;;1.75;;
15595;SDS011;7898;48.658;9.068;2023-04-24T08:56:33;3.45;;;1.50;;
15595;SDS011;7898;48.658;9.068;2023-04-24T08:59:04;2.00;;;1.77;;
15595;SDS011;7898;48.658;9.068;2023-04-24T09:01:32;1.50;;;1.27;;
15595;SDS011;7898;48.658;9.068;2023-04-24T09:04:00;2.25;;;1.50;;
15595;SDS011;7898;48.658;9.068;2023-04-24T09:06:28;3.70;;;1.70;;
15595;SDS011;7898;48.658;9.068;2023-04-24T09:08:58;2.97;;;1.80;;
15595;SDS011;7898;48.658;9.068;2023-04-24T09:11:29;5.03;;;1.67;;
15595;SDS011;7898;48.658;9.068;2023-04-24T09:13:57;2.10;;;1.55;;
15595;SDS011;7898;48.658;9.068;2023-04-24T09:16:24;2.97;;;1.40;;
15595;SDS011;7898;48.658;9.068;2023-04-24T09:18:52;1.40;;;1.30;;
15595;SDS011;7898;48.658;9.068;2023-04-24T09:21:20;2.50;;;1.50;;
15595;SDS011;7898;48.658;9.068;2023-04-24T09:23:48;4.47;;;2.08;;
15595;SDS011;7898;48.658;9.068;2023-04-24T09:26:26;1.33;;;1.00;;
15595;SDS011;7898;48.658;9.068;2023-04-24T09:28:56;2.60;;;1.30;;
15595;SDS011;7898;48.658;9.068;2023-04-24T09:31:23;1.50;;;1.30;;
15595;SDS011;7898;48.658;9.068;2023-04-24T09:33:56;2.03;;;1.33;;
15595;SDS011;7898;48.658;9.068;2023-04-24T09:36:27;2.15;;;1.30;;
15595;SDS011;7898;48.658;9.068;2023-04-24T09:38:58;2.80;;;1.08;;
15595;SDS011;7898;48.658;9.068;2023-04-24T09:41:26;1.27;;;1.10;;
15595;SDS011;7898;48.658;9.068;2023-04-24T09:43:54;4.50;;;1.30;;
15595;SDS011;7898;48.658;9.068;2023-04-24T09:46:21;1.73;;;1.10;;
15595;SDS011;7898;48.658;9.068;2023-04-24T09:48:55;1.23;;;1.00;;
15595;SDS011;7898;48.658;9.068;2023-04-24T09:51:33;1.55;;;1.10;;
15595;SDS011;7898;48.658;9.068;2023-04-24T09:54:02;1.95;;;1.05;;
15595;SDS011;7898;48.658;9.068;2023-04-24T09:56:32;1.00;;;0.90;;
15595;SDS011;7898;48.658;9.068;2023-04-24T09:59:04;1.38;;;1.00;;
15595;SDS011;7898;48.658;9.068;2023-04-24T10:01:32;1.45;;;0.90;;
15595;SDS011;7898;48.658;9.068;2023-04-24T10:03:59;3.13;;;1.25;;
15595;SDS011;7898;48.658;9.068;2023-04-24T10:06:30;2.45;;;1.05;;
15595;SDS011;7898;48.658;9.068;2023-04-24T10:08:59;1.08;;;0.90;;
15595;SDS011;7898;48.658;9.068;2023-04-24T10:11:28;1.98;;;1.20;;
15595;SDS011;7898;48.658;9.068;2023-04-24T10:13:56;0.82;;;0.80;;
15595;SDS011;7898;48.658;9.068;2023-04-24T10:16:23;0.98;;;0.88;;
15595;SDS011;7898;48.658;9.068;2023-04-24T10:18:52;1.17;;;0.98;;
15595;SDS011;7898;48.658;9.068;2023-04-24T10:21:19;2.55;;;1.40;;
15595;SDS011;7898;48.658;9.068;2023-04-24T10:23:46;1.63;;;1.10;;
15595;SDS011;7898;48.658;9.068;2023-04-24T10:26:15;1.58;;;1.00;;
15595;SDS011;7898;48.658;9.068;2023-04-24T10:28:46;2.75;;;1.02;;
15595;SDS011;7898;48.658;9.068;2023-04-24T10:31:13;1.00;;;0.82;;
15595;SDS011;7898;48.658;9.068;2023-04-24T10:33:41;1.38;;;0.80;;
15595;SDS011;7898;48.658;9.068;2023-04-24T10:36:09;1.23;;;1.00;;
15595;SDS011;7898;48.658;9.068;2023-04-24T10:38:36;1.10;;;1.00;;
15595;SDS011;7898;48.658;9.068;2023-04-24T10:41:06;2.28;;;1.02;;
15595;SDS011;7898;48.658;9.068;2023-04-24T10:43:35;1.80;;;1.10;;
15595;SDS011;7898;48.658;9.068;2023-04-24T10:46:04;0.95;;;0.85;;
15595;SDS011;7898;48.658;9.068;2023-04-24T10:48:33;0.90;;;0.70;;
15595;SDS011;7898;48.658;9.068;2023-04-24T10:51:00;1.50;;;1.00;;
15595;SDS011;7898;48.658;9.068;2023-04-24T10:53:29;1.05;;;1.00;;
15595;SDS011;7898;48.658;9.068;2023-04-24T10:55:57;2.45;;;1.02;;
15595;SDS011;7898;48.658;9.068;2023-04-24T10:58:35;1.42;;;1.00;;
15595;SDS011;7898;48.658;9.068;2023-04-24T11:01:06;1.00;;;0.90;;
15595;SDS011;7898;48.658;9.068;2023-04-24T11:03:34;1.10;;;0.95;;
15595;SDS011;7898;48.658;9.068;2023-04-24T11:06:02;1.30;;;1.20;;
15595;SDS011;7898;48.658;9.068;2023-04-24T11:08:32;1.58;;;1.17;;
15595;SDS011;7898;48.658;9.068;2023-04-24T11:11:07;2.20;;;1.23;;
15595;SDS011;7898;48.658;9.068;2023-04-24T11:16:31;1.40;;;1.27;;
15595;SDS011;7898;48.658;9.068;2023-04-24T11:19:00;1.80;;;1.40;;
15595;SDS011;7898;48.658;9.068;2023-04-24T11:21:30;1.48;;;1.27;;
15595;SDS011;7898;48.658;9.068;2023-04-24T11:23:58;1.70;;;1.15;;
15595;SDS011;7898;48.658;9.068;2023-04-24T11:26:45;1.10;;;0.90;;
15595;SDS011;7898;48.658;9.068;2023-04-24T11:29:12;2.10;;;1.00;;
15595;SDS011;7898;48.658;9.068;2023-04-24T11:31:40;1.45;;;1.00;;
15595;SDS011;7898;48.658;9.068;2023-04-24T11:34:13;1.27;;;1.00;;
15595;SDS011;7898;48.658;9.068;2023-04-24T11:36:42;1.43;;;1.10;;
15595;SDS011;7898;48.658;9.068;2023-04-24T11:39:10;1.27;;;1.10;;
15595;SDS011;7898;48.658;9.068;2023-04-24T11:41:37;1.00;;;0.90;;
15595;SDS011;7898;48.658;9.068;2023-04-24T11:44:06;1.73;;;1.08;;
15595;SDS011;7898;48.658;9.068;2023-04-24T11:46:34;1.37;;;1.03;;
15595;SDS011;7898;48.658;9.068;2023-04-24T11:49:04;1.02;;;0.88;;
15595;SDS011;7898;48.658;9.068;2023-04-24T11:51:31;1.40;;;0.93;;
15595;SDS011;7898;48.658;9.068;2023-04-24T11:53:58;1.20;;;1.10;;
15595;SDS011;7898;48.658;9.068;2023-04-24T11:56:25;2.45;;;1.45;;
15595;SDS011;7898;48.658;9.068;2023-04-24T11:58:52;1.67;;;1.25;;
15595;SDS011;7898;48.658;9.068;2023-04-24T12:01:20;2.30;;;1.00;;
15595;SDS011;7898;48.658;9.068;2023-04-24T12:03:47;1.85;;;1.30;;
15595;SDS011;7898;48.658;9.068;2023-04-24T12:06:17;1.30;;;1.20;;
15595;SDS011;7898;48.658;9.068;2023-04-24T12:08:48;0.98;;;0.95;;
15595;SDS011;7898;48.658;9.068;2023-04-24T12:11:15;3.70;;;1.53;;
15595;SDS011;7898;48.658;9.068;2023-04-24T12:13:44;2.77;;;1.23;;
15595;SDS011;7898;48.658;9.068;2023-04-24T12:16:11;1.33;;;1.23;;
15595;SDS011;7898;48.658;9.068;2023-04-24T12:18:42;3.37;;;1.47;;
15595;SDS011;7898;48.658;9.068;2023-04-24T12:21:18;2.53;;;1.50;;
15595;SDS011;7898;48.658;9.068;2023-04-24T12:23:46;3.27;;;1.47;;
15595;SDS011;7898;48.658;9.068;2023-04-24T12:26:15;2.27;;;1.67;;
15595;SDS011;7898;48.658;9.068;2023-04-24T12:28:45;2.53;;;1.30;;
15595;SDS011;7898;48.658;9.068;2023-04-24T12:31:13;1.20;;;1.10;;
15595;SDS011;7898;48.658;9.068;2023-04-24T12:33:41;2.85;;;1.40;;
15595;SDS011;7898;48.658;9.068;2023-04-24T12:36:09;1.85;;;1.10;;
15595;SDS011;7898;48.658;9.068;2023-04-24T12:38:39;1.75;;;1.10;;
15595;SDS011;7898;48.658;9.068;2023-04-24T12:41:10;3.03;;;1.17;;
15595;SDS011;7898;48.658;9.068;2023-04-24T12:43:38;1.25;;;1.15;;
15595;SDS011;7898;48.658;9.068;2023-04-24T12:46:04;2.53;;;1.45;;
15595;SDS011;7898;48.658;9.068;2023-04-24T12:48:31;2.17;;;1.00;;
15595;SDS011;7898;48.658;9.068;2023-04-24T12:50:58;1.45;;;1.20;;
15595;SDS011;7898;48.658;9.068;2023-04-24T12:53:27;1.60;;;1.00;;
15595;SDS011;7898;48.658;9.068;2023-04-24T12:55:57;1.58;;;1.27;;
15595;SDS011;7898;48.658;9.068;2023-04-24T12:58:24;2.20;;;1.40;;
15595;SDS011;7898;48.658;9.068;2023-04-24T13:00:51;3.17;;;1.37;;
15595;SDS011;7898;48.658;9.068;2023-04-24T13:03:18;4.10;;;1.30;;
15595;SDS011;7898;48.658;9.068;2023-04-24T13:05:47;1.50;;;1.30;;
15595;SDS011;7898;48.658;9.068;2023-04-24T13:08:14;1.70;;;1.40;;
15595;SDS011;7898;48.658;9.068;2023-04-24T13:10:41;1.30;;;1.17;;
15595;SDS011;7898;48.658;9.068;2023-04-24T13:13:09;1.73;;;1.60;;
15595;SDS011;7898;48.658;9.068;2023-04-24T13:15:36;3.17;;;1.40;;
15595;SDS011;7898;48.658;9.068;2023-04-24T13:18:03;1.57;;;1.47;;
15595;SDS011;7898;48.658;9.068;2023-04-24T13:20:30;3.47;;;1.80;;
15595;SDS011;7898;48.658;9.068;2023-04-24T13:22:57;2.30;;;1.53;;
15595;SDS011;7898;48.658;9.068;2023-04-24T13:25:24;2.40;;;1.70;;
15595;SDS011;7898;48.658;9.068;2023-04-24T13:27:51;2.20;;;1.60;;
15595;SDS011;7898;48.658;9.068;2023-04-24T13:30:20;2.23;;;1.80;;
15595;SDS011;7898;48.658;9.068;2023-04-24T13:32:46;2.90;;;1.80;;
15595;SDS011;7898;48.658;9.068;2023-04-24T13:35:13;2.00;;;1.60;;
15595;SDS011;7898;48.658;9.068;2023-04-24T13:37:40;2.70;;;1.80;;
15595;SDS011;7898;48.658;9.068;2023-04-24T13:40:07;2.03;;;1.90;;
15595;SDS011;7898;48.658;9.068;2023-04-24T13:42:35;3.97;;;1.80;;
15595;SDS011;7898;48.658;9.068;2023-04-24T13:45:02;1.80;;;1.70;;
15595;SDS011;7898;48.658;9.068;2023-04-24T13:47:31;2.67;;;1.27;;
15595;SDS011;7898;48.658;9.068;2023-04-24T13:49:58;1.70;;;1.60;;
15595;SDS011;7898;48.658;9.068;2023-04-24T13:52:25;2.80;;;2.07;;
15595;SDS011;7898;48.658;9.068;2023-04-24T13:54:52;2.37;;;1.70;;
15595;SDS011;7898;48.658;9.068;2023-04-24T13:57:20;2.60;;;1.77;;
15595;SDS011;7898;48.658;9.068;2023-04-24T13:59:47;2.00;;;1.70;;
15595;SDS011;7898;48.658;9.068;2023-04-24T14:02:14;1.93;;;1.83;;
15595;SDS011;7898;48.658;9.068;2023-04-24T14:04:42;2.00;;;1.80;;
15595;SDS011;7898;48.658;9.068;2023-04-24T14:07:09;7.03;;;1.90;;
15595;SDS011;7898;48.658;9.068;2023-04-24T14:09:36;2.20;;;1.70;;
15595;SDS011;7898;48.658;9.068;2023-04-24T14:12:03;2.50;;;1.87;;
15595;SDS011;7898;48.658;9.068;2023-04-24T14:14:30;2.40;;;1.67;;
15595;SDS011;7898;48.658;9.068;2023-04-24T14:16:57;2.37;;;1.77;;
15595;SDS011;7898;48.658;9.068;2023-04-24T14:19:24;3.63;;;2.47;;
15595;SDS011;7898;48.658;9.068;2023-04-24T14:21:53;1.77;;;1.60;;
15595;SDS011;7898;48.658;9.068;2023-04-24T14:24:21;4.47;;;1.57;;
15595;SDS011;7898;48.658;9.068;2023-04-24T14:26:48;3.20;;;1.90;;
15595;SDS011;7898;48.658;9.068;2023-04-24T14:29:15;3.97;;;2.33;;
15595;SDS011;7898;48.658;9.068;2023-04-24T14:31:42;3.43;;;2.27;;
15595;SDS011;7898;48.658;9.068;2023-04-24T14:34:09;2.43;;;2.13;;
15595;SDS011;7898;48.658;9.068;2023-04-24T14:36:36;2.33;;;1.80;;
15595;SDS011;7898;48.658;9.068;2023-04-24T14:39:04;3.43;;;2.20;;
15595;SDS011;7898;48.658;9.068;2023-04-24T14:41:32;2.47;;;2.10;;
15595;SDS011;7898;48.658;9.068;2023-04-24T14:44:00;4.43;;;2.20;;
15595;SDS011;7898;48.658;9.068;2023-04-24T14:46:28;2.13;;;1.73;;
15595;SDS011;7898;48.658;9.068;2023-04-24T14:48:55;2.58;;;1.88;;
15595;SDS011;7898;48.658;9.068;2023-04-24T14:51:22;2.20;;;1.93;;
15595;SDS011;7898;48.658;9.068;2023-04-24T14:53:50;4.78;;;1.73;;
15595;SDS011;7898;48.658;9.068;2023-04-24T14:56:18;2.13;;;1.70;;
15595;SDS011;7898;48.658;9.068;2023-04-24T14:58:48;2.33;;;1.83;;
15595;SDS011;7898;48.658;9.068;2023-04-24T15:01:15;2.28;;;1.48;;
15595;SDS011;7898;48.658;9.068;2023-04-24T15:03:42;2.58;;;1.80;;
15595;SDS011;7898;48.658;9.068;2023-04-24T15:06:10;2.10;;;1.67;;